createdAt,value
2023-07-18T00:00:37.838Z,54.60
2023-07-18T00:03:05.531Z,54.05
2023-07-18T00:05:37.438Z,53.96
2023-07-18T00:08:07.943Z,54.23
2023-07-18T00:10:37.636Z,54.02
2023-07-18T00:13:06.598Z,53.94
2023-07-18T00:15:38.137Z,54.16
2023-07-18T00:18:04.875Z,54.04
2023-07-18T00:20:31.966Z,54.74
2023-07-18T00:22:58.774Z,55.07
2023-07-18T00:25:25.647Z,55.20
2023-07-18T00:27:54.944Z,55.13
2023-07-18T00:30:25.189Z,55.13
2023-07-18T00:32:54.380Z,56.02
2023-07-18T00:35:21.050Z,56.43
2023-07-18T00:37:53.499Z,56.79
2023-07-18T00:40:20.265Z,56.61
2023-07-18T00:42:50.636Z,56.62
2023-07-18T00:45:22.050Z,56.93
2023-07-18T00:47:55.111Z,56.89
2023-07-18T00:50:22.754Z,57.34
2023-07-18T00:52:52.370Z,56.80
2023-07-18T00:55:22.728Z,57.53
2023-07-18T00:57:49.563Z,57.54
2023-07-18T01:00:18.982Z,57.59
2023-07-18T01:02:47.284Z,57.30
2023-07-18T01:05:20.954Z,57.18
2023-07-18T01:07:51.659Z,57.34
2023-07-18T01:10:26.716Z,57.60
2023-07-18T01:12:55.542Z,58.15
2023-07-18T01:15:25.333Z,57.23
2023-07-18T01:17:55.235Z,57.27
2023-07-18T01:20:28.864Z,57.45
2023-07-18T01:23:00.512Z,58.59
2023-07-18T01:25:27.915Z,58.50
2023-07-18T01:28:00.738Z,58.39
2023-07-18T01:30:31.409Z,58.06
2023-07-18T01:32:58.411Z,58.50
2023-07-18T01:35:27.613Z,58.63
2023-07-18T01:37:58.276Z,58.65
2023-07-18T01:40:25.323Z,58.54
2023-07-18T01:42:56.129Z,58.37
2023-07-18T01:45:24.952Z,58.05
2023-07-18T01:47:52.555Z,57.91
2023-07-18T01:50:22.188Z,58.04
2023-07-18T01:52:51.343Z,58.85
2023-07-18T01:55:18.543Z,58.97
2023-07-18T01:57:47.810Z,59.12
2023-07-18T02:00:22.654Z,58.83
2023-07-18T02:02:51.452Z,58.77
2023-07-18T02:05:26.467Z,59.03
2023-07-18T02:07:53.903Z,59.40
2023-07-18T02:10:24.271Z,59.54
2023-07-18T02:12:52.621Z,59.73
2023-07-18T02:15:19.967Z,59.73
2023-07-18T02:17:49.537Z,59.83
2023-07-18T02:20:19.813Z,60.00
2023-07-18T02:22:53.827Z,60.22
2023-07-18T02:25:22.998Z,60.51
2023-07-18T02:27:52.052Z,60.64
2023-07-18T02:30:21.176Z,60.48
2023-07-18T02:32:47.988Z,60.64
2023-07-18T02:35:20.104Z,60.43
2023-07-18T02:37:50.138Z,61.06
2023-07-18T02:40:21.375Z,61.22
2023-07-18T02:42:48.277Z,61.08
2023-07-18T02:45:17.738Z,61.27
2023-07-18T02:47:46.777Z,61.45
2023-07-18T02:50:18.721Z,61.31
2023-07-18T02:52:50.759Z,61.28
2023-07-18T02:55:19.571Z,61.54
2023-07-18T02:57:48.584Z,61.79
2023-07-18T03:00:21.653Z,62.33
2023-07-18T03:02:52.792Z,62.66
2023-07-18T03:05:23.860Z,62.45
2023-07-18T03:07:56.051Z,62.79
2023-07-18T03:10:25.373Z,62.94
2023-07-18T03:12:57.140Z,63.06
2023-07-18T03:15:26.065Z,63.16
2023-07-18T03:17:52.721Z,62.76
2023-07-18T03:20:21.997Z,63.03
2023-07-18T03:22:50.071Z,63.15
2023-07-18T03:25:18.659Z,63.05
2023-07-18T03:27:45.520Z,62.58
2023-07-18T03:30:13.355Z,62.86
2023-07-18T03:32:41.057Z,63.36
2023-07-18T03:35:12.198Z,62.88
2023-07-18T03:37:41.735Z,63.16
2023-07-18T03:40:11.653Z,62.96
2023-07-18T03:42:38.750Z,63.49
2023-07-18T03:45:11.990Z,63.51
2023-07-18T03:47:38.578Z,63.46
2023-07-18T03:50:05.448Z,63.45
2023-07-18T03:52:34.348Z,63.00
2023-07-18T03:55:00.943Z,62.98
2023-07-18T03:57:30.948Z,63.05
2023-07-18T04:00:04.853Z,62.90
2023-07-18T04:02:36.238Z,63.46
2023-07-18T04:05:02.804Z,63.52
2023-07-18T04:07:33.492Z,62.74
2023-07-18T04:10:00.521Z,62.67
2023-07-18T04:12:29.813Z,61.95
2023-07-18T04:14:56.691Z,62.36
2023-07-18T04:17:25.728Z,62.42
2023-07-18T04:20:02.210Z,62.45
2023-07-18T04:22:30.838Z,61.24
2023-07-18T04:24:58.059Z,61.42
2023-07-18T04:27:29.532Z,59.89
2023-07-18T04:29:57.835Z,60.83
2023-07-18T04:32:26.915Z,61.00
2023-07-18T04:34:53.602Z,61.40
2023-07-18T04:37:20.260Z,62.05
2023-07-18T04:39:47.172Z,62.16
2023-07-18T04:42:16.532Z,61.39
2023-07-18T04:44:45.597Z,60.90
2023-07-18T04:47:12.326Z,59.27
2023-07-18T04:49:39.309Z,58.35
2023-07-18T04:52:06.069Z,58.42
2023-07-18T04:54:33.182Z,57.40
2023-07-18T04:57:04.083Z,57.74
2023-07-18T04:59:36.951Z,57.49
2023-07-18T05:02:03.761Z,57.01
2023-07-18T05:04:30.510Z,56.24
2023-07-18T05:07:00.703Z,56.06
2023-07-18T05:09:29.302Z,56.03
2023-07-18T05:11:56.277Z,55.78
2023-07-18T05:14:23.946Z,56.34
2023-07-18T05:16:50.866Z,56.18
2023-07-18T05:19:20.014Z,56.04
2023-07-18T05:21:48.898Z,55.38
2023-07-18T05:24:15.666Z,54.91
2023-07-18T05:26:42.264Z,56.61
2023-07-18T05:29:11.492Z,55.46
2023-07-18T05:31:43.411Z,54.07
2023-07-18T05:34:15.278Z,55.27
2023-07-18T05:36:42.812Z,54.53
2023-07-18T05:39:09.584Z,54.24
2023-07-18T05:41:40.113Z,53.62
2023-07-18T05:44:06.649Z,53.35
2023-07-18T05:46:38.302Z,54.00
2023-07-18T05:49:06.466Z,54.59
2023-07-18T05:51:33.099Z,54.13
2023-07-18T05:54:05.381Z,54.10
2023-07-18T05:56:32.913Z,54.01
2023-07-18T05:59:01.551Z,54.57
2023-07-18T06:01:28.132Z,54.87
2023-07-18T06:03:55.124Z,55.20
2023-07-18T06:06:21.800Z,55.60
2023-07-18T06:08:52.057Z,55.48
2023-07-18T06:11:21.377Z,55.36
2023-07-18T06:13:48.000Z,54.51
2023-07-18T06:16:15.018Z,54.94
2023-07-18T06:18:44.475Z,54.53
2023-07-18T06:21:11.142Z,54.33
2023-07-18T06:23:37.673Z,54.39
2023-07-18T06:26:08.688Z,55.28
2023-07-18T06:28:38.101Z,55.62
2023-07-18T06:31:04.746Z,54.87
2023-07-18T06:33:33.441Z,55.09
2023-07-18T06:36:05.010Z,55.26
2023-07-18T06:38:31.687Z,55.27
2023-07-18T06:40:58.381Z,55.76
2023-07-18T06:43:25.839Z,55.03
2023-07-18T06:45:54.725Z,54.68
2023-07-18T06:48:21.598Z,54.57
2023-07-18T06:50:50.408Z,54.53
2023-07-18T06:53:20.832Z,54.70
2023-07-18T06:55:57.288Z,54.07
2023-07-18T06:58:23.917Z,54.61
2023-07-18T07:00:53.703Z,54.82
2023-07-18T07:03:20.924Z,54.36
2023-07-18T07:05:51.410Z,54.25
2023-07-18T07:08:20.410Z,53.30
2023-07-18T07:10:47.306Z,52.98
2023-07-18T07:13:16.257Z,53.53
2023-07-18T07:15:47.736Z,53.04
2023-07-18T07:18:19.229Z,53.26
2023-07-18T07:20:50.585Z,53.63
2023-07-18T07:23:17.967Z,53.47
2023-07-18T07:25:47.838Z,53.47
2023-07-18T07:28:15.137Z,53.53
2023-07-18T07:30:44.691Z,53.48
2023-07-18T07:33:16.723Z,53.20
2023-07-18T07:35:44.752Z,53.67
2023-07-18T07:38:20.459Z,53.14
2023-07-18T07:40:47.118Z,53.21
2023-07-18T07:43:17.925Z,52.96
2023-07-18T07:45:51.930Z,53.32
2023-07-18T07:48:22.219Z,53.03
2023-07-18T07:50:56.188Z,53.26
2023-07-18T07:53:25.007Z,53.13
2023-07-18T07:55:55.450Z,52.92
2023-07-18T07:58:22.333Z,52.85
2023-07-18T08:00:49.169Z,52.41
2023-07-18T08:03:18.349Z,53.02
2023-07-18T08:05:45.119Z,51.41
2023-07-18T08:08:12.044Z,51.49
2023-07-18T08:10:41.020Z,51.42
2023-07-18T08:13:07.840Z,50.89
2023-07-18T08:15:34.597Z,50.52
2023-07-18T08:18:01.533Z,49.77
2023-07-18T08:20:29.072Z,50.28
2023-07-18T08:22:56.143Z,50.17
2023-07-18T08:25:28.626Z,50.45
2023-07-18T08:28:01.000Z,51.57
2023-07-18T08:30:28.247Z,50.40
2023-07-18T08:32:57.402Z,50.20
2023-07-18T08:35:26.644Z,49.87
2023-07-18T08:37:58.219Z,50.40
2023-07-18T08:40:24.801Z,49.86
2023-07-18T08:42:57.866Z,51.35
2023-07-18T08:45:32.676Z,50.15
2023-07-18T08:48:04.311Z,50.20
2023-07-18T08:50:34.262Z,48.88
2023-07-18T08:53:06.275Z,49.14
2023-07-18T08:55:33.158Z,49.08
2023-07-18T08:58:03.519Z,49.52
2023-07-18T09:00:30.744Z,48.32
2023-07-18T09:02:57.558Z,48.36
2023-07-18T09:05:37.272Z,48.05
2023-07-18T09:08:05.641Z,48.42
2023-07-18T09:10:37.904Z,49.40
2023-07-18T09:13:08.813Z,47.91
2023-07-18T09:15:38.635Z,47.68
2023-07-18T09:18:07.277Z,47.77
2023-07-18T09:20:34.658Z,47.96
2023-07-18T09:23:05.161Z,48.03
2023-07-18T09:25:39.708Z,48.26
2023-07-18T09:28:13.593Z,48.39
2023-07-18T09:30:40.610Z,47.37
2023-07-18T09:33:08.051Z,48.47
2023-07-18T09:35:40.133Z,47.58
2023-07-18T09:38:08.532Z,47.45
2023-07-18T09:40:40.033Z,47.11
2023-07-18T09:43:12.456Z,46.40
2023-07-18T09:45:45.177Z,47.27
2023-07-18T09:48:12.586Z,48.22
2023-07-18T09:50:46.018Z,47.54
2023-07-18T09:53:14.650Z,47.42
2023-07-18T09:55:45.584Z,46.05
2023-07-18T09:58:13.844Z,46.48
2023-07-18T10:00:42.998Z,46.56
2023-07-18T10:03:15.409Z,45.76
2023-07-18T10:05:47.179Z,46.61
2023-07-18T10:08:16.805Z,45.67
2023-07-18T10:11:05.386Z,45.40
2023-07-18T10:13:41.850Z,45.14
2023-07-18T10:16:14.813Z,44.99
2023-07-18T10:18:48.429Z,44.80
2023-07-18T10:21:34.893Z,44.05
2023-07-18T10:24:23.183Z,44.86
2023-07-18T10:26:52.963Z,44.68
2023-07-18T10:29:20.178Z,44.20
2023-07-18T10:31:51.639Z,44.03
2023-07-18T10:34:19.466Z,44.65
2023-07-18T10:37:03.098Z,45.25
2023-07-18T10:39:44.992Z,45.00
2023-07-18T10:42:22.195Z,45.31
2023-07-18T10:44:49.684Z,44.70
2023-07-18T10:47:20.189Z,46.07
2023-07-18T10:49:48.595Z,44.26
2023-07-18T10:52:16.633Z,43.70
2023-07-18T10:54:55.654Z,44.40
2023-07-18T10:57:30.952Z,44.49
2023-07-18T11:00:00.480Z,44.70
2023-07-18T11:02:29.330Z,43.84
2023-07-18T11:04:56.092Z,44.79
2023-07-18T11:07:34.784Z,45.54
2023-07-18T11:10:03.404Z,45.84
2023-07-18T11:12:30.041Z,46.46
2023-07-18T11:14:59.558Z,46.42
2023-07-18T11:17:31.881Z,46.48
2023-07-18T11:20:01.165Z,46.88
2023-07-18T11:22:28.978Z,47.67
2023-07-18T11:25:06.014Z,49.54
2023-07-18T11:27:32.740Z,51.43
2023-07-18T11:30:05.947Z,51.66
2023-07-18T11:32:42.067Z,56.73
2023-07-18T11:35:19.467Z,56.56
2023-07-18T11:37:47.886Z,56.91
2023-07-18T11:40:22.981Z,56.05
2023-07-18T11:43:01.767Z,57.25
2023-07-18T11:45:35.537Z,57.12
2023-07-18T11:48:07.346Z,57.12
2023-07-18T11:50:34.159Z,58.88
2023-07-18T11:53:08.948Z,59.81
2023-07-18T11:55:35.540Z,59.57
2023-07-18T11:58:02.202Z,58.20
2023-07-18T12:00:28.892Z,58.12
2023-07-18T12:02:58.457Z,56.71
2023-07-18T12:05:26.097Z,58.96
2023-07-18T12:07:53.105Z,59.98
2023-07-18T12:10:23.264Z,60.53
2023-07-18T12:12:50.759Z,60.01
2023-07-18T12:15:17.383Z,61.20
2023-07-18T12:17:46.627Z,62.31
2023-07-18T12:20:16.257Z,62.14
2023-07-18T12:22:45.951Z,62.73
2023-07-18T12:25:18.170Z,63.42
2023-07-18T12:27:47.009Z,62.83
2023-07-18T12:30:16.244Z,64.03
2023-07-18T12:32:48.375Z,66.22
2023-07-18T12:35:16.162Z,66.60
2023-07-18T12:37:42.846Z,65.15
2023-07-18T12:40:12.363Z,64.38
2023-07-18T12:42:41.322Z,63.24
2023-07-18T12:45:08.498Z,61.76
2023-07-18T12:47:38.043Z,62.43
2023-07-18T12:50:07.811Z,63.24
2023-07-18T12:52:35.306Z,63.71
2023-07-18T12:55:03.512Z,64.23
2023-07-18T12:57:32.230Z,63.68
2023-07-18T13:00:01.720Z,63.54
2023-07-18T13:02:31.099Z,63.31
2023-07-18T13:04:58.479Z,63.95
2023-07-18T13:07:25.217Z,64.09
2023-07-18T13:09:51.959Z,63.89
2023-07-18T13:12:20.987Z,64.28
2023-07-18T13:14:47.633Z,63.61
2023-07-18T13:17:14.326Z,62.86
2023-07-18T13:19:41.898Z,62.20
2023-07-18T13:22:08.617Z,61.18
2023-07-18T13:24:42.622Z,60.99
2023-07-18T13:27:11.625Z,59.71
2023-07-18T13:29:38.413Z,60.97
2023-07-18T13:32:10.929Z,60.89
2023-07-18T13:34:37.815Z,60.65
2023-07-18T13:37:07.516Z,61.16
2023-07-18T13:39:34.259Z,60.56
2023-07-18T13:42:00.937Z,59.81
2023-07-18T13:44:27.649Z,60.12
2023-07-18T13:46:54.410Z,59.68
2023-07-18T13:49:21.055Z,59.85
2023-07-18T13:51:51.383Z,59.46
2023-07-18T13:54:23.212Z,58.79
2023-07-18T13:56:49.972Z,58.91
2023-07-18T13:59:19.827Z,57.75
2023-07-18T14:01:53.628Z,58.25
2023-07-18T14:04:20.691Z,57.89
2023-07-18T14:06:54.409Z,57.09
2023-07-18T14:09:21.001Z,54.82
2023-07-18T14:11:50.249Z,57.00
2023-07-18T14:14:16.857Z,54.33
2023-07-18T14:16:43.643Z,53.76
2023-07-18T14:19:10.553Z,52.87
2023-07-18T14:21:39.813Z,51.98
2023-07-18T14:24:06.699Z,51.44
2023-07-18T14:26:35.969Z,49.45
2023-07-18T14:29:04.850Z,49.58
2023-07-18T14:31:35.876Z,49.63
2023-07-18T14:34:06.907Z,47.27
2023-07-18T14:36:34.908Z,49.10
2023-07-18T14:39:01.773Z,47.60
2023-07-18T14:41:28.559Z,44.92
2023-07-18T14:43:55.243Z,45.02
2023-07-18T14:46:26.682Z,45.39
2023-07-18T14:48:55.716Z,44.00
2023-07-18T14:51:23.633Z,43.81
2023-07-18T14:53:52.737Z,43.59
2023-07-18T14:56:19.742Z,42.45
2023-07-18T14:58:49.088Z,42.52
2023-07-18T15:01:15.914Z,42.49
2023-07-18T15:03:45.525Z,41.09
2023-07-18T15:06:12.251Z,43.08
2023-07-18T15:08:41.878Z,42.04
2023-07-18T15:11:11.932Z,41.94
2023-07-18T15:13:38.656Z,42.39
2023-07-18T15:16:06.045Z,42.14
2023-07-18T15:18:32.752Z,42.95
2023-07-18T15:21:05.059Z,44.36
2023-07-18T15:23:37.414Z,41.05
2023-07-18T15:26:04.449Z,42.57
2023-07-18T15:28:33.018Z,42.09
2023-07-18T15:31:08.626Z,39.75
2023-07-18T15:33:37.881Z,40.67
2023-07-18T15:36:13.916Z,40.26
2023-07-18T15:38:44.703Z,40.70
2023-07-18T15:41:13.325Z,40.53
2023-07-18T15:43:44.923Z,38.85
2023-07-18T15:46:11.873Z,40.63
2023-07-18T15:48:39.565Z,37.34
2023-07-18T15:51:09.328Z,38.17
2023-07-18T15:53:39.189Z,38.74
2023-07-18T15:56:10.971Z,42.30
2023-07-18T15:58:39.561Z,40.18
2023-07-18T16:01:10.179Z,38.72
2023-07-18T16:03:38.371Z,40.35
2023-07-18T16:06:08.095Z,40.39
2023-07-18T16:08:48.722Z,42.78
2023-07-18T16:11:15.603Z,40.61
2023-07-18T16:13:44.977Z,42.67
2023-07-18T16:16:13.678Z,41.81
2023-07-18T16:18:57.529Z,42.46
2023-07-18T16:21:25.540Z,42.77
2023-07-18T16:23:53.368Z,41.09
2023-07-18T16:26:21.153Z,41.73
2023-07-18T16:28:54.407Z,40.79
2023-07-18T16:31:23.875Z,40.40
2023-07-18T16:33:55.947Z,42.04
2023-07-18T16:36:24.129Z,40.41
2023-07-18T16:38:52.982Z,42.54
2023-07-18T16:41:20.183Z,39.57
2023-07-18T16:43:46.860Z,38.28
2023-07-18T16:46:16.627Z,39.35
2023-07-18T16:48:45.816Z,38.57
2023-07-18T16:51:14.400Z,39.50
2023-07-18T16:53:42.073Z,39.15
2023-07-18T16:56:13.085Z,38.45
2023-07-18T16:58:43.858Z,38.03
2023-07-18T17:01:17.113Z,38.68
2023-07-18T17:03:46.490Z,38.92
2023-07-18T17:06:13.625Z,39.88
2023-07-18T17:08:41.876Z,40.21
2023-07-18T17:11:11.237Z,40.63
2023-07-18T17:13:38.005Z,41.43
2023-07-18T17:16:05.325Z,41.03
2023-07-18T17:18:34.458Z,43.98
2023-07-18T17:21:03.580Z,41.55
2023-07-18T17:23:32.881Z,41.09
2023-07-18T17:26:00.895Z,42.55
2023-07-18T17:28:29.864Z,41.59
2023-07-18T17:30:58.114Z,42.99
2023-07-18T17:33:27.230Z,41.98
2023-07-18T17:35:54.018Z,42.73
2023-07-18T17:38:23.152Z,41.63
2023-07-18T17:40:55.333Z,42.89
2023-07-18T17:43:23.398Z,42.83
2023-07-18T17:45:50.608Z,44.41
2023-07-18T17:48:22.430Z,43.11
2023-07-18T17:50:49.058Z,43.37
2023-07-18T17:53:17.204Z,43.88
2023-07-18T17:55:46.428Z,45.69
2023-07-18T17:58:13.258Z,45.84
2023-07-18T18:00:42.712Z,45.25
2023-07-18T18:03:13.026Z,46.45
2023-07-18T18:05:48.113Z,46.37
2023-07-18T18:08:17.116Z,47.42
2023-07-18T18:10:47.705Z,46.91
2023-07-18T18:13:15.252Z,48.40
2023-07-18T18:15:56.288Z,48.21
2023-07-18T18:18:31.799Z,48.39
2023-07-18T18:20:59.504Z,49.42
2023-07-18T18:23:37.420Z,50.10
2023-07-18T18:26:06.606Z,51.07
2023-07-18T18:28:33.710Z,51.79
2023-07-18T18:31:02.970Z,52.54
2023-07-18T18:33:29.976Z,52.99
2023-07-18T18:35:57.125Z,54.32
2023-07-18T18:38:24.019Z,54.67
2023-07-18T18:40:51.437Z,55.59
2023-07-18T18:43:19.945Z,54.53
2023-07-18T18:45:49.789Z,54.58
2023-07-18T18:48:16.633Z,54.19
2023-07-18T18:50:43.257Z,54.88
2023-07-18T18:53:09.897Z,55.72
2023-07-18T18:55:36.773Z,56.13
2023-07-18T18:58:05.999Z,56.54
2023-07-18T19:00:33.039Z,57.00
2023-07-18T19:03:00.006Z,56.89
2023-07-18T19:05:27.100Z,57.06
2023-07-18T19:07:54.104Z,56.97
2023-07-18T19:10:21.255Z,57.10
2023-07-18T19:12:48.262Z,57.76
2023-07-18T19:15:16.369Z,57.71
2023-07-18T19:17:43.461Z,58.02
2023-07-18T19:20:10.964Z,58.88
2023-07-18T19:22:37.932Z,58.51
2023-07-18T19:25:07.790Z,58.07
2023-07-18T19:27:34.889Z,58.42
2023-07-18T19:30:01.857Z,58.03
2023-07-18T19:32:28.829Z,57.31
2023-07-18T19:34:55.846Z,57.56
2023-07-18T19:37:23.146Z,57.01
2023-07-18T19:39:50.231Z,57.76
2023-07-18T19:42:17.319Z,57.86
2023-07-18T19:44:46.082Z,58.28
2023-07-18T19:47:15.247Z,58.32
2023-07-18T19:49:45.330Z,59.09
2023-07-18T19:52:12.449Z,59.56
2023-07-18T19:54:39.420Z,59.21
2023-07-18T19:57:06.648Z,59.60
2023-07-18T19:59:33.828Z,60.55
2023-07-18T20:02:00.730Z,60.76
2023-07-18T20:04:27.590Z,60.89
2023-07-18T20:06:54.542Z,60.62
2023-07-18T20:09:21.623Z,60.85
2023-07-18T20:11:51.109Z,61.21
2023-07-18T20:14:23.775Z,60.95
2023-07-18T20:16:55.267Z,60.54
2023-07-18T20:19:22.201Z,60.84
2023-07-18T20:21:48.925Z,61.22
2023-07-18T20:24:15.656Z,61.18
2023-07-18T20:26:43.827Z,61.54
2023-07-18T20:29:10.852Z,61.84
2023-07-18T20:31:40.155Z,61.79
2023-07-18T20:34:09.150Z,61.66
2023-07-18T20:36:36.549Z,61.95
2023-07-18T20:39:03.417Z,62.73
2023-07-18T20:41:31.301Z,62.84
2023-07-18T20:43:58.203Z,62.91
2023-07-18T20:46:24.993Z,63.18
2023-07-18T20:48:52.025Z,63.30
2023-07-18T20:51:19.073Z,63.02
2023-07-18T20:53:45.905Z,62.90
2023-07-18T20:56:15.084Z,63.69
2023-07-18T20:58:42.197Z,63.82
2023-07-18T21:01:08.964Z,63.75
2023-07-18T21:03:35.730Z,63.07
2023-07-18T21:06:02.502Z,63.92
2023-07-18T21:08:29.148Z,63.96
2023-07-18T21:10:58.332Z,64.27
2023-07-18T21:13:25.184Z,64.14
2023-07-18T21:15:52.659Z,64.55
2023-07-18T21:18:19.489Z,64.18
2023-07-18T21:20:48.661Z,64.13
2023-07-18T21:23:15.409Z,64.12
2023-07-18T21:25:44.285Z,64.32
2023-07-18T21:28:13.195Z,64.50
2023-07-18T21:30:39.948Z,64.58
2023-07-18T21:33:11.127Z,64.64
2023-07-18T21:35:37.833Z,64.50
2023-07-18T21:38:06.531Z,64.77
2023-07-18T21:40:33.490Z,64.71
2023-07-18T21:43:00.357Z,65.01
2023-07-18T21:45:27.241Z,65.44
2023-07-18T21:47:54.020Z,65.46
2023-07-18T21:50:20.804Z,65.61
2023-07-18T21:52:47.672Z,65.53
2023-07-18T21:55:14.561Z,65.46
2023-07-18T21:57:43.876Z,65.48
2023-07-18T22:00:13.379Z,65.37
2023-07-18T22:02:40.299Z,66.19
2023-07-18T22:05:08.029Z,66.06
2023-07-18T22:07:34.800Z,66.31
2023-07-18T22:10:03.477Z,66.25
2023-07-18T22:12:30.572Z,65.77
2023-07-18T22:14:57.589Z,65.93
2023-07-18T22:17:27.237Z,65.88
2023-07-18T22:19:53.965Z,66.41
2023-07-18T22:22:20.530Z,65.77
2023-07-18T22:24:49.638Z,65.87
2023-07-18T22:27:16.569Z,66.48
2023-07-18T22:29:43.451Z,66.85
2023-07-18T22:32:10.337Z,66.67
2023-07-18T22:34:37.175Z,66.92
2023-07-18T22:37:04.119Z,66.63
2023-07-18T22:39:36.370Z,66.48
2023-07-18T22:42:15.372Z,66.69
2023-07-18T22:44:46.456Z,67.16
2023-07-18T22:47:14.136Z,67.39
2023-07-18T22:49:41.592Z,67.41
2023-07-18T22:52:19.096Z,66.79
2023-07-18T22:54:51.779Z,67.22
2023-07-18T22:57:19.032Z,67.49
2023-07-18T22:59:48.579Z,67.10
2023-07-18T23:02:15.804Z,67.06
2023-07-18T23:04:43.626Z,67.15
2023-07-18T23:07:10.351Z,68.01
2023-07-18T23:09:37.110Z,67.90
2023-07-18T23:12:04.048Z,67.89
2023-07-18T23:14:33.072Z,67.69
2023-07-18T23:16:59.776Z,67.75
2023-07-18T23:19:26.918Z,68.23
2023-07-18T23:21:53.625Z,68.31
2023-07-18T23:24:20.347Z,68.40
2023-07-18T23:26:49.338Z,67.63
2023-07-18T23:29:16.175Z,68.04
2023-07-18T23:31:45.849Z,67.92
2023-07-18T23:34:12.883Z,68.08
2023-07-18T23:36:39.574Z,68.24
2023-07-18T23:39:06.934Z,68.14
2023-07-18T23:41:36.244Z,67.68
2023-07-18T23:44:03.272Z,68.14
2023-07-18T23:46:29.891Z,68.14
2023-07-18T23:48:56.968Z,68.15
2023-07-18T23:51:25.839Z,67.52
2023-07-18T23:53:53.468Z,67.85
2023-07-18T23:56:20.732Z,67.37
2023-07-18T23:58:47.810Z,68.43
